createdAt,value
2022-09-28T00:00:57.455Z,46.42
2022-09-28T00:03:24.678Z,50.35
2022-09-28T00:05:51.830Z,54.85
2022-09-28T00:08:19.018Z,52.38
2022-09-28T00:10:55.025Z,51.65
2022-09-28T00:13:22.162Z,53.20
2022-09-28T00:15:49.379Z,52.60
2022-09-28T00:18:16.732Z,52.67
2022-09-28T00:20:43.915Z,54.90
2022-09-28T00:23:11.055Z,49.55
2022-09-28T00:25:38.242Z,51.85
2022-09-28T00:28:06.456Z,56.10
2022-09-28T00:30:33.586Z,47.15
2022-09-28T00:33:00.872Z,52.25
2022-09-28T00:35:28.023Z,51.30
2022-09-28T00:37:55.189Z,54.28
2022-09-28T00:40:22.458Z,54.53
2022-09-28T00:42:49.642Z,50.05
2022-09-28T00:45:16.878Z,48.97
2022-09-28T00:47:49.608Z,51.83
2022-09-28T00:50:29.011Z,47.53
2022-09-28T00:53:02.563Z,43.83
2022-09-28T00:55:41.191Z,47.95
2022-09-28T00:58:09.833Z,47.95
2022-09-28T01:00:37.350Z,46.53
2022-09-28T01:03:04.722Z,48.33
2022-09-28T01:05:32.507Z,53.33
2022-09-28T01:07:59.656Z,47.70
2022-09-28T01:10:28.541Z,51.35
2022-09-28T01:12:56.082Z,52.67
2022-09-28T01:15:25.100Z,53.22
2022-09-28T01:18:08.061Z,54.22
2022-09-28T01:20:40.938Z,51.47
2022-09-28T01:23:26.676Z,54.88
2022-09-28T01:25:55.315Z,53.55
2022-09-28T01:28:25.683Z,53.78
2022-09-28T01:31:22.495Z,52.28
2022-09-28T01:33:52.704Z,53.05
2022-09-28T01:36:32.304Z,50.95
2022-09-28T01:39:02.737Z,51.50
2022-09-28T01:41:31.657Z,52.53
2022-09-28T01:44:03.141Z,51.42
2022-09-28T01:46:36.881Z,48.35
2022-09-28T01:49:10.880Z,47.78
2022-09-28T01:51:41.810Z,46.70
2022-09-28T01:54:29.369Z,48.78
2022-09-28T01:56:59.934Z,51.10
2022-09-28T01:59:28.741Z,50.95
2022-09-28T02:02:07.254Z,51.65
2022-09-28T02:04:37.413Z,48.63
2022-09-28T02:07:08.489Z,44.92
2022-09-28T02:09:42.814Z,45.90
2022-09-28T02:12:16.995Z,45.97
2022-09-28T02:14:46.249Z,47.22
2022-09-28T02:17:13.685Z,46.17
2022-09-28T02:19:41.536Z,43.47
2022-09-28T02:22:11.750Z,45.28
2022-09-28T02:24:40.534Z,43.87
2022-09-28T02:27:19.958Z,43.70
2022-09-28T02:29:47.102Z,39.95
2022-09-28T02:32:14.470Z,40.95
2022-09-28T02:34:41.740Z,39.40
2022-09-28T02:37:08.931Z,43.03
2022-09-28T02:39:36.076Z,41.65
2022-09-28T02:42:14.597Z,41.67
2022-09-28T02:44:57.734Z,42.78
2022-09-28T02:47:33.499Z,39.60
2022-09-28T02:50:23.732Z,38.15
2022-09-28T02:53:00.323Z,42.67
2022-09-28T02:55:39.677Z,41.90
2022-09-28T02:58:21.985Z,43.60
2022-09-28T03:01:02.639Z,41.83
2022-09-28T03:03:53.012Z,41.40
2022-09-28T03:06:25.454Z,39.22
2022-09-28T03:08:59.692Z,42.85
2022-09-28T03:11:33.177Z,40.30
2022-09-28T03:14:01.061Z,40.15
2022-09-28T03:16:29.085Z,41.30
2022-09-28T03:18:56.246Z,42.20
2022-09-28T03:21:23.565Z,44.80
2022-09-28T03:23:50.689Z,44.67
2022-09-28T03:26:18.038Z,49.28
2022-09-28T03:28:45.324Z,56.45
2022-09-28T03:31:12.572Z,48.70
2022-09-28T03:33:39.793Z,49.50
2022-09-28T03:36:08.825Z,46.90
2022-09-28T03:38:36.032Z,48.45
2022-09-28T03:41:03.293Z,44.28
2022-09-28T03:43:30.937Z,46.88
2022-09-28T03:46:01.645Z,47.33
2022-09-28T03:48:32.327Z,44.13
2022-09-28T03:51:01.744Z,43.70
2022-09-28T03:53:29.826Z,47.47
2022-09-28T03:55:57.038Z,43.75
2022-09-28T03:58:24.427Z,41.75
2022-09-28T04:00:51.659Z,47.08
2022-09-28T04:03:18.907Z,44.70
2022-09-28T04:05:50.182Z,41.55
2022-09-28T04:08:17.337Z,43.55
2022-09-28T04:10:44.534Z,41.25
2022-09-28T04:13:12.070Z,42.53
2022-09-28T04:15:39.456Z,40.38
2022-09-28T04:18:10.906Z,49.50
2022-09-28T04:20:41.115Z,46.83
2022-09-28T04:23:08.436Z,42.70
2022-09-28T04:25:35.578Z,45.67
2022-09-28T04:28:21.485Z,40.67
2022-09-28T04:30:48.708Z,42.63
2022-09-28T04:33:15.886Z,42.90
2022-09-28T04:35:43.138Z,42.60
2022-09-28T04:38:10.297Z,40.92
2022-09-28T04:40:37.511Z,47.33
2022-09-28T04:43:04.947Z,43.35
2022-09-28T04:45:32.160Z,42.00
2022-09-28T04:47:59.353Z,45.92
2022-09-28T04:50:26.709Z,45.70
2022-09-28T04:52:53.838Z,42.17
2022-09-28T04:55:21.009Z,43.35
2022-09-28T04:57:48.286Z,43.45
2022-09-28T05:00:15.531Z,38.35
2022-09-28T05:02:42.718Z,44.38
2022-09-28T05:05:09.962Z,39.00
2022-09-28T05:07:37.101Z,37.92
2022-09-28T05:10:04.329Z,41.10
2022-09-28T05:12:31.565Z,45.45
2022-09-28T05:14:58.989Z,40.13
2022-09-28T05:17:26.190Z,38.78
2022-09-28T05:19:53.527Z,40.20
2022-09-28T05:22:20.942Z,38.60
2022-09-28T05:24:48.142Z,39.95
2022-09-28T05:27:15.600Z,37.60
2022-09-28T05:29:42.775Z,34.63
2022-09-28T05:32:09.972Z,35.42
2022-09-28T05:34:37.482Z,38.15
2022-09-28T05:37:04.748Z,35.65
2022-09-28T05:39:31.905Z,37.53
2022-09-28T05:41:59.170Z,37.67
2022-09-28T05:44:26.510Z,38.90
2022-09-28T05:46:54.783Z,47.80
2022-09-28T05:49:22.015Z,41.75
2022-09-28T05:51:49.250Z,40.15
2022-09-28T05:54:16.707Z,40.55
2022-09-28T05:56:44.246Z,43.00
2022-09-28T05:59:12.211Z,43.30
2022-09-28T06:01:39.452Z,34.88
2022-09-28T06:04:06.695Z,42.33
2022-09-28T06:06:35.665Z,37.60
2022-09-28T06:09:02.828Z,48.55
2022-09-28T06:11:30.172Z,41.75
2022-09-28T06:13:57.333Z,41.28
2022-09-28T06:16:24.527Z,41.58
2022-09-28T06:18:51.840Z,43.00
2022-09-28T06:21:19.039Z,44.60
2022-09-28T06:23:49.249Z,44.85
2022-09-28T06:26:17.380Z,40.92
2022-09-28T06:28:44.575Z,37.22
2022-09-28T06:31:11.852Z,39.22
2022-09-28T06:33:39.157Z,41.97
2022-09-28T06:36:06.427Z,39.25
2022-09-28T06:38:34.131Z,30.55
2022-09-28T06:41:01.386Z,28.17
2022-09-28T06:43:34.156Z,28.98
2022-09-28T06:46:03.160Z,29.88
2022-09-28T06:48:31.748Z,28.63
2022-09-28T06:50:58.985Z,24.77
2022-09-28T06:53:27.412Z,26.52
2022-09-28T06:55:55.143Z,26.35
2022-09-28T06:58:23.186Z,26.13
2022-09-28T07:00:53.777Z,25.80
2022-09-28T07:03:22.099Z,25.70
2022-09-28T07:05:50.264Z,25.73
2022-09-28T07:08:18.102Z,27.30
2022-09-28T07:10:48.922Z,25.85
2022-09-28T07:13:44.831Z,26.95
2022-09-28T07:16:04.630Z,25.77
2022-09-28T07:18:31.773Z,28.00
2022-09-28T07:20:59.446Z,23.48
2022-09-28T07:23:29.906Z,24.77
2022-09-28T07:25:58.240Z,22.27
2022-09-28T07:28:25.978Z,23.90
2022-09-28T07:30:53.305Z,26.75
2022-09-28T07:33:20.510Z,22.63
2022-09-28T07:35:52.238Z,23.30
2022-09-28T07:38:19.523Z,20.55
2022-09-28T07:41:05.277Z,26.65
2022-09-28T07:43:33.293Z,22.13
2022-09-28T07:46:00.521Z,21.52
2022-09-28T07:48:27.811Z,21.92
2022-09-28T07:50:56.881Z,18.20
2022-09-28T07:53:25.041Z,20.30
2022-09-28T07:55:55.997Z,19.05
2022-09-28T07:58:23.605Z,20.40
2022-09-28T08:00:50.905Z,19.27
2022-09-28T08:03:18.991Z,20.05
2022-09-28T08:05:47.523Z,21.38
2022-09-28T08:08:15.276Z,20.20
2022-09-28T08:10:47.135Z,18.02
2022-09-28T08:13:16.428Z,19.95
2022-09-28T08:15:43.640Z,18.27
2022-09-28T08:18:10.866Z,20.85
2022-09-28T08:20:57.352Z,22.83
2022-09-28T08:23:24.608Z,21.95
2022-09-28T08:25:55.164Z,22.83
2022-09-28T08:28:23.248Z,21.65
2022-09-28T08:30:50.861Z,20.40
2022-09-28T08:33:20.285Z,23.63
2022-09-28T08:35:47.643Z,23.15
2022-09-28T08:38:15.352Z,22.73
2022-09-28T08:40:51.403Z,37.10
2022-09-28T08:43:25.253Z,23.50
2022-09-28T08:45:52.995Z,21.13
2022-09-28T08:48:41.670Z,20.25
2022-09-28T08:51:15.665Z,21.48
2022-09-28T08:54:11.027Z,17.75
2022-09-28T08:56:45.686Z,19.13
2022-09-28T08:59:15.242Z,16.70
2022-09-28T09:01:45.533Z,19.40
2022-09-28T09:04:13.120Z,16.85
2022-09-28T09:06:43.337Z,20.27
2022-09-28T09:09:26.137Z,19.50
2022-09-28T09:11:57.337Z,19.02
2022-09-28T09:14:57.042Z,19.35
2022-09-28T09:17:26.958Z,19.90
2022-09-28T09:19:55.357Z,21.20
2022-09-28T09:22:27.493Z,18.88
2022-09-28T09:25:14.679Z,23.45
2022-09-28T09:28:00.122Z,18.33
2022-09-28T09:30:31.292Z,19.58
2022-09-28T09:33:25.250Z,18.23
2022-09-28T09:35:52.368Z,16.90
2022-09-28T09:38:28.565Z,16.33
2022-09-28T09:41:07.837Z,17.08
2022-09-28T09:43:38.526Z,18.73
2022-09-28T09:46:05.760Z,25.80
2022-09-28T09:48:45.332Z,18.73
2022-09-28T09:51:18.267Z,19.90
2022-09-28T09:53:49.402Z,18.98
2022-09-28T09:56:28.129Z,17.33
2022-09-28T09:58:57.525Z,15.13
2022-09-28T10:01:30.734Z,18.20
2022-09-28T10:03:59.186Z,18.63
2022-09-28T10:06:28.905Z,17.63
2022-09-28T10:09:07.193Z,18.55
2022-09-28T10:11:37.286Z,16.92
2022-09-28T10:14:06.712Z,20.17
2022-09-28T10:16:34.166Z,22.33
2022-09-28T10:19:01.655Z,18.33
2022-09-28T10:21:29.677Z,18.73
2022-09-28T10:23:59.285Z,20.33
2022-09-28T10:26:29.053Z,19.75
2022-09-28T10:28:58.597Z,17.98
2022-09-28T10:31:43.231Z,19.52
2022-09-28T10:34:14.932Z,18.23
2022-09-28T10:36:47.751Z,19.30
2022-09-28T10:39:26.937Z,23.58
2022-09-28T10:41:54.558Z,23.75
2022-09-28T10:44:22.866Z,21.98
2022-09-28T10:47:01.079Z,19.10
2022-09-28T10:49:28.638Z,19.13
2022-09-28T10:51:56.599Z,20.98
2022-09-28T10:54:25.596Z,19.58
2022-09-28T10:56:53.828Z,19.45
2022-09-28T10:59:30.058Z,18.48
2022-09-28T11:02:07.874Z,20.20
2022-09-28T11:04:42.496Z,20.63
2022-09-28T11:07:24.828Z,19.23
2022-09-28T11:09:52.848Z,19.95
2022-09-28T11:12:24.698Z,20.80
2022-09-28T11:14:57.275Z,19.27
2022-09-28T11:17:29.255Z,21.58
2022-09-28T11:19:57.684Z,22.27
2022-09-28T11:22:29.053Z,25.50
2022-09-28T11:25:15.335Z,19.48
2022-09-28T11:27:42.699Z,26.48
2022-09-28T11:30:25.036Z,25.25
2022-09-28T11:32:53.222Z,22.42
2022-09-28T11:35:25.589Z,21.85
2022-09-28T11:37:52.702Z,20.90
2022-09-28T11:40:26.004Z,24.17
2022-09-28T11:43:08.089Z,30.05
2022-09-28T11:45:54.146Z,22.92
2022-09-28T11:48:45.283Z,26.48
2022-09-28T11:51:17.857Z,21.50
2022-09-28T11:53:56.407Z,22.65
2022-09-28T11:56:38.924Z,17.73
2022-09-28T11:59:15.021Z,21.98
2022-09-28T12:01:53.831Z,21.60
2022-09-28T12:04:20.961Z,20.85
2022-09-28T12:06:52.631Z,24.25
2022-09-28T12:09:28.405Z,18.33
2022-09-28T12:11:59.297Z,20.08
2022-09-28T12:14:31.582Z,25.30
2022-09-28T12:17:07.772Z,23.98
2022-09-28T12:19:39.588Z,21.58
2022-09-28T12:22:24.377Z,21.67
2022-09-28T12:24:53.355Z,21.77
2022-09-28T12:27:20.474Z,20.77
2022-09-28T12:29:59.428Z,20.42
2022-09-28T12:32:26.595Z,22.85
2022-09-28T12:34:53.885Z,26.10
2022-09-28T12:37:21.049Z,23.60
2022-09-28T12:40:07.272Z,25.25
2022-09-28T12:42:53.275Z,24.13
2022-09-28T12:45:47.905Z,23.70
2022-09-28T12:48:36.383Z,25.98
2022-09-28T12:51:12.740Z,26.00
2022-09-28T12:53:58.717Z,29.55
2022-09-28T12:56:40.888Z,25.98
2022-09-28T12:59:19.661Z,26.50
2022-09-28T13:02:21.681Z,26.70
2022-09-28T13:04:51.830Z,28.13
2022-09-28T13:07:21.805Z,28.92
2022-09-28T13:10:11.194Z,27.07
2022-09-28T13:12:49.824Z,29.52
2022-09-28T13:15:25.015Z,30.83
2022-09-28T13:17:58.497Z,29.42
2022-09-28T13:20:25.721Z,27.23
2022-09-28T13:22:56.407Z,29.90
2022-09-28T13:25:26.032Z,31.48
2022-09-28T13:27:55.930Z,30.08
2022-09-28T13:30:23.206Z,28.38
2022-09-28T13:32:50.906Z,28.00
2022-09-28T13:35:22.241Z,29.25
2022-09-28T13:38:09.394Z,26.58
2022-09-28T13:41:02.964Z,31.10
2022-09-28T13:43:32.970Z,29.42
2022-09-28T13:46:03.239Z,32.33
2022-09-28T13:49:05.900Z,31.92
2022-09-28T13:51:42.865Z,29.00
2022-09-28T13:54:25.004Z,29.27
2022-09-28T13:56:52.133Z,26.65
2022-09-28T13:59:27.426Z,29.67
2022-09-28T14:02:00.725Z,25.73
2022-09-28T14:04:50.136Z,26.20
2022-09-28T14:07:21.666Z,27.30
2022-09-28T14:09:50.081Z,28.55
2022-09-28T14:12:29.353Z,24.27
2022-09-28T14:14:56.836Z,20.65
2022-09-28T14:17:23.960Z,23.00
2022-09-28T14:19:56.790Z,21.30
2022-09-28T14:22:42.457Z,23.15
2022-09-28T14:25:21.874Z,19.90
2022-09-28T14:27:49.060Z,20.55
2022-09-28T14:30:16.324Z,22.08
2022-09-28T14:32:49.948Z,21.33
2022-09-28T14:35:18.852Z,20.42
2022-09-28T14:38:07.681Z,20.83
2022-09-28T14:41:12.811Z,20.42
2022-09-28T14:43:46.074Z,22.02
2022-09-28T14:46:19.091Z,23.67
2022-09-28T14:48:50.567Z,22.75
2022-09-28T14:51:26.969Z,23.08
2022-09-28T14:53:55.123Z,21.20
2022-09-28T14:56:22.591Z,20.15
2022-09-28T14:58:55.827Z,23.92
2022-09-28T15:01:24.825Z,24.55
2022-09-28T15:03:54.095Z,25.50
2022-09-28T15:06:24.971Z,22.05
2022-09-28T15:08:52.134Z,24.98
2022-09-28T15:11:22.661Z,23.20
2022-09-28T15:13:53.357Z,26.00
2022-09-28T15:16:24.271Z,28.38
2022-09-28T15:19:03.643Z,27.27
2022-09-28T15:21:41.610Z,29.30
2022-09-28T15:24:29.159Z,28.33
2022-09-28T15:26:56.796Z,29.52
2022-09-28T15:29:24.109Z,28.40
2022-09-28T15:31:54.527Z,30.80
2022-09-28T15:34:54.506Z,33.63
2022-09-28T15:37:22.225Z,26.50
2022-09-28T15:39:53.371Z,30.92
2022-09-28T15:45:01.283Z,30.10
2022-09-28T15:47:29.689Z,33.03
2022-09-28T15:50:05.455Z,31.42
2022-09-28T15:52:47.204Z,36.72
2022-09-28T15:55:32.418Z,37.22
2022-09-28T15:58:17.132Z,33.15
2022-09-28T16:00:48.280Z,38.65
2022-09-28T16:05:42.969Z,39.33
2022-09-28T16:08:24.315Z,39.75
2022-09-28T16:10:56.989Z,42.03
2022-09-28T16:13:24.449Z,42.42
2022-09-28T16:15:57.992Z,47.40
2022-09-28T16:18:26.159Z,43.92
2022-09-28T16:20:54.274Z,42.05
2022-09-28T16:23:24.208Z,45.80
2022-09-28T16:25:59.767Z,45.13
2022-09-28T16:28:39.306Z,44.75
2022-09-28T16:31:08.101Z,48.47
2022-09-28T16:33:40.651Z,54.78
2022-09-28T16:36:12.528Z,47.45
2022-09-28T16:38:39.726Z,43.47
2022-09-28T16:41:07.099Z,47.78
2022-09-28T16:43:36.706Z,49.58
2022-09-28T16:46:09.452Z,48.03
2022-09-28T16:48:39.745Z,48.20
2022-09-28T16:51:06.958Z,46.37
2022-09-28T16:53:53.078Z,49.53
2022-09-28T16:56:20.406Z,48.30
2022-09-28T16:58:49.411Z,46.97
2022-09-28T17:01:16.677Z,47.55
2022-09-28T17:03:46.884Z,51.58
2022-09-28T17:06:14.586Z,48.65
2022-09-28T17:08:43.125Z,49.10
2022-09-28T17:11:19.239Z,48.53
2022-09-28T17:13:49.979Z,52.45
2022-09-28T17:16:18.633Z,50.72
2022-09-28T17:18:46.361Z,46.20
2022-09-28T17:21:16.017Z,54.33
2022-09-28T17:23:44.031Z,49.03
2022-09-28T17:26:24.294Z,49.75
2022-09-28T17:28:51.495Z,37.63
2022-09-28T17:31:18.732Z,27.58
2022-09-28T17:33:46.290Z,21.92
2022-09-28T17:36:18.095Z,21.35
2022-09-28T17:38:45.856Z,13.80
2022-09-28T17:41:18.064Z,12.05
2022-09-28T17:43:47.520Z,10.07
2022-09-28T17:46:35.327Z,10.77
2022-09-28T17:49:04.320Z,8.15
2022-09-28T17:51:35.192Z,10.15
2022-09-28T17:54:02.657Z,8.05
2022-09-28T17:56:32.503Z,7.30
2022-09-28T17:59:04.938Z,6.85
2022-09-28T18:01:35.377Z,8.75
2022-09-28T18:04:03.809Z,7.88
2022-09-28T18:06:33.721Z,7.15
2022-09-28T18:09:02.770Z,6.68
2022-09-28T18:11:30.464Z,8.23
2022-09-28T18:13:57.755Z,8.38
2022-09-28T18:16:26.071Z,7.57
2022-09-28T18:18:53.242Z,9.23
2022-09-28T18:21:20.534Z,7.38
2022-09-28T18:23:47.665Z,9.52
2022-09-28T18:26:16.759Z,10.85
2022-09-28T18:28:43.976Z,10.75
2022-09-28T18:31:15.598Z,11.13
2022-09-28T18:33:43.365Z,11.13
2022-09-28T18:36:10.789Z,10.18
2022-09-28T18:38:38.610Z,9.70
2022-09-28T18:41:08.847Z,11.93
2022-09-28T18:43:36.589Z,9.60
2022-09-28T18:46:07.735Z,12.02
2022-09-28T18:51:03.661Z,8.88
2022-09-28T18:53:34.719Z,9.30
2022-09-28T18:56:06.197Z,8.82
2022-09-28T18:58:35.171Z,10.32
2022-09-28T19:01:28.473Z,9.18
2022-09-28T19:03:54.070Z,11.50
2022-09-28T19:06:21.472Z,10.68
2022-09-28T19:08:52.798Z,10.45
2022-09-28T19:13:47.183Z,12.45
2022-09-28T19:16:18.373Z,11.35
2022-09-28T19:21:13.878Z,11.65
2022-09-28T19:23:44.687Z,10.73
2022-09-28T19:26:15.239Z,9.60
2022-09-28T19:28:42.433Z,10.02
2022-09-28T19:31:10.027Z,12.27
2022-09-28T19:33:38.082Z,9.48
2022-09-28T19:36:09.811Z,10.25
2022-09-28T19:38:38.423Z,10.57
2022-09-28T19:41:09.607Z,12.40
2022-09-28T19:43:37.136Z,9.43
2022-09-28T19:46:06.459Z,7.63
2022-09-28T19:48:35.376Z,9.77
2022-09-28T19:51:04.741Z,9.80
2022-09-28T19:53:33.682Z,11.48
2022-09-28T19:56:05.600Z,11.55
2022-09-28T19:58:34.823Z,13.85
2022-09-28T20:01:05.489Z,12.88
2022-09-28T20:03:32.855Z,10.38
2022-09-28T20:06:00.651Z,11.40
2022-09-28T20:08:30.018Z,9.85
2022-09-28T20:10:59.627Z,8.95
2022-09-28T20:13:31.694Z,12.25
2022-09-28T20:16:06.645Z,12.55
2022-09-28T20:18:38.644Z,12.13
2022-09-28T20:21:06.709Z,10.68
2022-09-28T20:23:37.334Z,12.50
2022-09-28T20:26:05.251Z,10.30
2022-09-28T20:28:32.940Z,11.93
2022-09-28T20:31:06.871Z,11.40
2022-09-28T20:33:34.543Z,10.50
2022-09-28T20:36:08.546Z,12.77
2022-09-28T20:38:40.432Z,12.02
2022-09-28T20:41:11.961Z,11.48
2022-09-28T20:43:40.148Z,12.27
2022-09-28T20:46:08.613Z,13.32
2022-09-28T20:48:35.878Z,11.93
2022-09-28T20:51:04.432Z,12.98
2022-09-28T20:53:32.261Z,12.07
2022-09-28T20:56:03.609Z,13.10
2022-09-28T20:58:31.168Z,15.68
2022-09-28T21:01:08.321Z,10.90
2022-09-28T21:03:35.913Z,10.50
2022-09-28T21:06:03.634Z,11.50
2022-09-28T21:08:31.223Z,11.40
2022-09-28T21:10:58.927Z,11.13
2022-09-28T21:13:26.792Z,12.20
2022-09-28T21:15:54.192Z,11.52
2022-09-28T21:18:21.495Z,11.75
2022-09-28T21:20:49.735Z,12.45
2022-09-28T21:23:21.544Z,12.60
2022-09-28T21:25:51.202Z,11.90
2022-09-28T21:28:18.506Z,12.60
2022-09-28T21:30:46.148Z,16.45
2022-09-28T21:33:13.305Z,13.65
2022-09-28T21:35:40.585Z,15.82
2022-09-28T21:38:07.754Z,15.13
2022-09-28T21:40:34.973Z,14.82
2022-09-28T21:43:02.240Z,15.98
2022-09-28T21:45:29.416Z,15.95
2022-09-28T21:47:56.552Z,15.23
2022-09-28T21:50:24.773Z,16.52
2022-09-28T21:52:52.675Z,16.88
2022-09-28T21:55:20.773Z,18.25
2022-09-28T21:57:48.333Z,18.90
2022-09-28T22:00:16.599Z,18.63
2022-09-28T22:02:44.151Z,19.27
2022-09-28T22:05:12.094Z,19.00
2022-09-28T22:07:40.209Z,16.13
2022-09-28T22:10:08.286Z,16.30
2022-09-28T22:12:35.554Z,15.43
2022-09-28T22:15:02.715Z,14.60
2022-09-28T22:17:29.967Z,17.58
2022-09-28T22:19:57.331Z,13.85
2022-09-28T22:22:28.976Z,14.20
2022-09-28T22:24:56.395Z,17.52
2022-09-28T22:27:24.216Z,15.73
2022-09-28T22:29:51.787Z,12.75
2022-09-28T22:32:19.001Z,12.50
2022-09-28T22:34:46.347Z,13.07
2022-09-28T22:37:13.492Z,12.77
2022-09-28T22:39:41.136Z,12.68
2022-09-28T22:42:08.739Z,13.32
2022-09-28T22:44:35.983Z,11.20
2022-09-28T22:47:03.555Z,12.55
2022-09-28T22:49:31.738Z,12.38
2022-09-28T22:51:58.875Z,13.15
2022-09-28T22:54:26.081Z,14.13
2022-09-28T22:56:53.352Z,15.23
2022-09-28T22:59:20.647Z,13.25
2022-09-28T23:01:47.965Z,13.32
2022-09-28T23:04:15.325Z,14.98
2022-09-28T23:06:42.473Z,12.98
2022-09-28T23:09:09.611Z,16.08
2022-09-28T23:11:37.465Z,11.85
2022-09-28T23:14:04.658Z,16.55
2022-09-28T23:16:31.903Z,14.25
2022-09-28T23:18:59.294Z,14.85
2022-09-28T23:21:27.324Z,14.10
2022-09-28T23:23:58.998Z,15.75
2022-09-28T23:26:27.368Z,12.63
2022-09-28T23:28:54.553Z,18.90
2022-09-28T23:31:23.639Z,13.65
2022-09-28T23:33:50.981Z,14.68
2022-09-28T23:36:18.701Z,14.13
2022-09-28T23:38:45.975Z,13.95
2022-09-28T23:41:13.209Z,15.48
2022-09-28T23:43:40.357Z,12.52
2022-09-28T23:46:07.732Z,14.48
2022-09-28T23:48:35.157Z,12.40
2022-09-28T23:51:02.814Z,12.93
2022-09-28T23:53:32.337Z,15.50
2022-09-28T23:55:59.525Z,12.13
2022-09-28T23:58:27.039Z,13.82
